»·PEaware :: PH-TIM KUDD-KTNP

PH-TIM :: KUDD-KTNP

FLIGHT INFORMATION

Flight Status: Arrived
Operator: Privately registered:
Netherlands
More flights under this callsign
Pilot: Tim P. (6337)
Aircraft: CESSNA 172 SKYHAWK
(C172)
More flights by this aircraft type
Origin: KUDD Bermuda Dunes
United States
Destination: KTNP Twentynine Palms
United States
More flights between these airports :: More routes between these airports
Route: KUDD1 KUDD TRM V208 TNP
File this flight plan on PilotEdge
Remarks: Custom weather
Altitude:
(Current/Filed)
7,000ft
Speed:
(Current/Filed)
105kts
Departed: 11-Jul-18 10:58 AM
Arrived: 11-Jul-18 11:44 AM
Distance/Time
Traveled:
29nm/0:46
Distance/Time
To Go:
Arrived

Flight Plot

Page will automatically refresh every two minutes.

Flight plan parsing failed; only flown route is shown


Map Options




Map Legend


Flown Route
Filed Route
Departure Airport
Arrival Airport
Navaid (VOR, NDB)
Fix

Horizontal Profiles

Position Reports

Time Latitude Longitude Heading Altitude Ground
Speed
11-Jul-18 10:25 33.745692 -116.272345 90 77ft 0kts
11-Jul-18 10:26 33.745692 -116.272345 90 77ft 0kts
11-Jul-18 10:27 33.745692 -116.272345 90 77ft 0kts
11-Jul-18 10:28 33.745692 -116.272345 90 77ft 0kts
11-Jul-18 10:29 33.745692 -116.272345 90 77ft 0kts
11-Jul-18 10:30 33.745692 -116.272345 90 77ft 0kts
11-Jul-18 10:31 33.745692 -116.272345 90 77ft 0kts
11-Jul-18 10:32 33.745692 -116.272345 90 77ft 0kts
11-Jul-18 10:33 33.745692 -116.272345 90 77ft 0kts
11-Jul-18 10:34 33.745692 -116.272345 90 77ft 0kts
11-Jul-18 10:35 33.745692 -116.272345 90 77ft 0kts
11-Jul-18 10:36 33.745692 -116.272345 90 77ft 0kts
11-Jul-18 10:37 33.745692 -116.272345 90 77ft 0kts
11-Jul-18 10:38 33.745692 -116.272345 90 77ft 0kts
11-Jul-18 10:39 33.745692 -116.272345 90 77ft 0kts
11-Jul-18 10:40 33.745692 -116.272345 90 77ft 0kts
11-Jul-18 10:41 33.745692 -116.272345 90 77ft 0kts
11-Jul-18 10:42 33.745692 -116.272345 90 77ft 0kts
11-Jul-18 10:43 33.745692 -116.272345 90 77ft 0kts
11-Jul-18 10:44 33.745692 -116.272345 90 77ft 0kts
11-Jul-18 10:45 33.745692 -116.272345 90 77ft 0kts
11-Jul-18 10:46 33.745692 -116.272345 90 77ft 0kts
11-Jul-18 10:47 33.745692 -116.272345 90 77ft 0kts
11-Jul-18 10:48 33.745692 -116.272345 90 77ft 0kts
11-Jul-18 10:49 33.745692 -116.272345 90 77ft 0kts
11-Jul-18 10:50 33.745692 -116.272345 90 77ft 0kts
11-Jul-18 10:51 33.746286 -116.272005 5 77ft 7kts
11-Jul-18 10:52 33.747979 -116.275134 295 77ft 14kts
11-Jul-18 10:53 33.749599 -116.279140 295 77ft 19kts
11-Jul-18 10:54 33.751083 -116.282571 82 77ft 0kts
11-Jul-18 10:55 33.751083 -116.282572 82 77ft 0kts
11-Jul-18 10:56 33.751083 -116.282572 82 77ft 0kts
11-Jul-18 10:57 33.751083 -116.282572 82 77ft 0kts
11-Jul-18 10:58 33.751084 -116.282560 77 77ft 0kts
11-Jul-18 10:59 33.747983 -116.273693 116 236ft 67kts
11-Jul-18 11:00 33.733823 -116.261173 159 1050ft 66kts
11-Jul-18 11:01 33.715715 -116.255754 160 1797ft 68kts
11-Jul-18 11:02 33.701443 -116.241230 129 2505ft 68kts
11-Jul-18 11:03 33.687382 -116.225973 145 3164ft 70kts
11-Jul-18 11:04 33.672739 -116.211154 137 3816ft 69kts
11-Jul-18 11:05 33.657628 -116.196107 135 4421ft 72kts
11-Jul-18 11:06 33.643171 -116.179901 130 5032ft 72kts
11-Jul-18 11:07 33.631820 -116.159501 117 5593ft 75kts
11-Jul-18 11:08 33.622765 -116.137160 119 6160ft 74kts
11-Jul-18 11:09 33.627416 -116.113392 52 6692ft 79kts
11-Jul-18 11:10 33.650451 -116.106468 13 7065ft 100kts
11-Jul-18 11:11 33.680964 -116.098425 16 6940ft 112kts
11-Jul-18 11:12 33.709081 -116.085975 22 6896ft 100kts
11-Jul-18 11:13 33.733706 -116.073422 35 7006ft 96kts
11-Jul-18 11:14 33.755871 -116.055696 35 7189ft 96kts
11-Jul-18 11:15 33.779641 -116.037912 30 7205ft 110kts
11-Jul-18 11:16 33.807651 -116.021286 39 7200ft 112kts
11-Jul-18 11:17 33.831243 -115.996966 40 7215ft 112kts
11-Jul-18 11:18 33.856931 -115.974098 40 7140ft 115kts
11-Jul-18 11:19 33.883798 -115.952432 26 7033ft 119kts
11-Jul-18 11:20 33.911663 -115.932632 36 6996ft 115kts
11-Jul-18 11:21 33.938231 -115.911666 39 6999ft 112kts
11-Jul-18 11:22 33.962982 -115.888289 43 6987ft 112kts
11-Jul-18 11:23 33.988077 -115.865541 38 6981ft 114kts
11-Jul-18 11:24 34.014776 -115.845305 24 6962ft 116kts
11-Jul-18 11:25 34.044108 -115.829556 30 6941ft 115kts
11-Jul-18 11:26 34.070310 -115.807742 38 6927ft 113kts
11-Jul-18 11:27 34.094180 -115.782429 44 6861ft 115kts
11-Jul-18 11:28 34.105326 -115.752218 74 7032ft 101kts
11-Jul-18 11:29 34.109230 -115.718462 89 7157ft 105kts
11-Jul-18 11:30 34.109445 -115.682017 92 7234ft 109kts
11-Jul-18 11:31 34.105727 -115.644113 100 7081ft 118kts
11-Jul-18 11:32 34.101659 -115.605748 95 6666ft 114kts
11-Jul-18 11:33 34.098567 -115.567311 116 6130ft 112kts
11-Jul-18 11:34 34.091752 -115.582437 325 6028ft 112kts
11-Jul-18 11:35 34.104963 -115.611922 273 6102ft 108kts
11-Jul-18 11:36 34.109081 -115.649744 279 5581ft 115kts
11-Jul-18 11:37 34.112271 -115.688060 266 5017ft 114kts
11-Jul-18 11:38 34.114347 -115.724578 277 4910ft 106kts
11-Jul-18 11:39 34.118568 -115.760399 270 4718ft 109kts
11-Jul-18 11:40 34.121933 -115.797498 276 4251ft 105kts
11-Jul-18 11:41 34.125132 -115.833645 279 3844ft 106kts
11-Jul-18 11:42 34.128720 -115.866902 275 3399ft 92kts
11-Jul-18 11:43 34.133222 -115.897286 278 2795ft 90kts
11-Jul-18 11:44 34.134475 -115.925487 264 2010ft 76kts
11-Jul-18 11:45 34.134456 -115.941481 312 1814ft 8kts
11-Jul-18 11:46 34.134994 -115.941561 356 1815ft 0kts
11-Jul-18 11:47 34.135875 -115.942364 180 1817ft 0kts
11-Jul-18 11:48 34.135875 -115.942364 180 1817ft 0kts
11-Jul-18 11:49 34.135875 -115.942364 180 1817ft 0kts
11-Jul-18 11:50 34.135875 -115.942364 180 1817ft 0kts
11-Jul-18 11:51 34.135875 -115.942364 180 1817ft 0kts
11-Jul-18 11:52 34.135875 -115.942364 180 1817ft 0kts
11-Jul-18 11:53 34.135875 -115.942364 180 1817ft 0kts
11-Jul-18 11:54 34.135875 -115.942364 180 1817ft 0kts

Navigation Log

Ident Type
Flight plan parsing failed, navigation log unavailable